createdAt,value
2022-08-26T00:00:04.716Z,20.83
2022-08-26T00:01:04.706Z,20.78
2022-08-26T00:02:04.735Z,20.75
2022-08-26T00:03:04.672Z,20.74
2022-08-26T00:04:04.722Z,20.71
2022-08-26T00:05:04.643Z,20.73
2022-08-26T00:06:04.630Z,20.70
2022-08-26T00:07:05.313Z,20.68
2022-08-26T00:08:04.602Z,20.70
2022-08-26T00:09:04.592Z,20.71
2022-08-26T00:10:04.572Z,20.73
2022-08-26T00:11:04.634Z,20.70
2022-08-26T00:12:04.550Z,20.71
2022-08-26T00:13:04.590Z,20.71
2022-08-26T00:14:04.525Z,20.70
2022-08-26T00:15:04.514Z,20.67
2022-08-26T00:16:04.539Z,20.64
2022-08-26T00:17:04.522Z,20.60
2022-08-26T00:18:04.495Z,20.56
2022-08-26T00:19:05.455Z,20.50
2022-08-26T00:20:04.443Z,20.49
2022-08-26T00:21:06.279Z,20.48
2022-08-26T00:22:04.424Z,20.44
2022-08-26T00:23:04.497Z,20.44
2022-08-26T00:24:04.493Z,20.44
2022-08-26T00:25:04.383Z,20.40
2022-08-26T00:26:04.381Z,20.37
2022-08-26T00:27:04.397Z,20.36
2022-08-26T00:28:04.343Z,20.34
2022-08-26T00:29:04.327Z,20.33
2022-08-26T00:30:04.335Z,20.33
2022-08-26T00:31:04.297Z,20.33
2022-08-26T00:32:04.374Z,20.33
2022-08-26T00:33:04.307Z,20.33
2022-08-26T00:34:04.246Z,20.36
2022-08-26T00:35:04.267Z,20.36
2022-08-26T00:36:04.227Z,20.34
2022-08-26T00:37:04.226Z,20.34
2022-08-26T00:38:04.227Z,20.32
2022-08-26T00:39:04.187Z,20.30
2022-08-26T00:40:05.166Z,20.29
2022-08-26T00:41:04.166Z,20.27
2022-08-26T00:42:04.165Z,20.26
2022-08-26T00:43:07.113Z,20.24
2022-08-26T00:44:05.117Z,20.22
2022-08-26T00:45:04.677Z,20.21
2022-08-26T00:46:05.161Z,20.19
2022-08-26T00:47:04.118Z,20.17
2022-08-26T00:48:04.068Z,20.15
2022-08-26T00:49:04.054Z,20.11
2022-08-26T00:50:05.038Z,20.08
2022-08-26T00:51:04.110Z,20.07
2022-08-26T00:52:04.038Z,20.04
2022-08-26T00:53:04.033Z,20.04
2022-08-26T00:54:03.988Z,20.04
2022-08-26T00:55:03.969Z,20.07
2022-08-26T00:56:03.969Z,20.04
2022-08-26T00:57:04.015Z,20.07
2022-08-26T00:58:03.931Z,20.07
2022-08-26T00:59:04.260Z,20.04
2022-08-26T01:00:03.930Z,20.04
2022-08-26T01:01:03.975Z,20.04
2022-08-26T01:02:03.985Z,20.04
2022-08-26T01:03:05.252Z,20.03
2022-08-26T01:04:03.847Z,20.03
2022-08-26T01:05:04.021Z,20.02
2022-08-26T01:06:03.832Z,19.99
2022-08-26T01:07:03.865Z,20.00
2022-08-26T01:08:03.801Z,19.96
2022-08-26T01:09:03.789Z,19.94
2022-08-26T01:10:03.854Z,19.93
2022-08-26T01:11:03.771Z,19.92
2022-08-26T01:12:03.741Z,19.90
2022-08-26T01:13:03.774Z,19.85
2022-08-26T01:14:03.712Z,19.82
2022-08-26T01:15:03.702Z,19.79
2022-08-26T01:16:03.742Z,19.78
2022-08-26T01:17:05.083Z,19.74
2022-08-26T01:18:03.660Z,19.74
2022-08-26T01:19:03.659Z,19.71
2022-08-26T01:20:03.685Z,19.72
2022-08-26T01:21:03.632Z,19.71
2022-08-26T01:22:03.622Z,19.71
2022-08-26T01:23:03.688Z,19.70
2022-08-26T01:24:03.572Z,19.70
2022-08-26T01:25:03.872Z,19.71
2022-08-26T01:26:03.563Z,19.70
2022-08-26T01:27:03.543Z,19.67
2022-08-26T01:28:03.524Z,19.66
2022-08-26T01:29:03.515Z,19.64
2022-08-26T01:30:03.493Z,19.64
2022-08-26T01:31:03.505Z,19.64
2022-08-26T01:32:03.464Z,19.66
2022-08-26T01:33:03.502Z,19.66
2022-08-26T01:34:03.444Z,19.70
2022-08-26T01:35:03.434Z,19.66
2022-08-26T01:36:03.425Z,19.67
2022-08-26T01:37:03.404Z,19.66
2022-08-26T01:38:03.392Z,19.62
2022-08-26T01:39:03.382Z,19.59
2022-08-26T01:40:03.404Z,19.57
2022-08-26T01:41:03.355Z,19.56
2022-08-26T01:42:04.347Z,19.55
2022-08-26T01:43:04.393Z,19.57
2022-08-26T01:44:03.309Z,19.57
2022-08-26T01:45:03.295Z,19.56
2022-08-26T01:46:03.328Z,19.56
2022-08-26T01:47:03.284Z,19.53
2022-08-26T01:48:03.255Z,19.49
2022-08-26T01:49:03.242Z,19.48
2022-08-26T01:50:03.226Z,19.45
2022-08-26T01:51:03.217Z,19.44
2022-08-26T01:52:03.214Z,19.41
2022-08-26T01:53:03.193Z,19.41
2022-08-26T01:54:03.181Z,19.41
2022-08-26T01:55:03.157Z,19.39
2022-08-26T01:56:03.147Z,19.39
2022-08-26T01:57:03.157Z,19.41
2022-08-26T01:58:03.123Z,19.39
2022-08-26T01:59:03.116Z,19.41
2022-08-26T02:00:03.088Z,19.37
2022-08-26T02:01:03.101Z,19.32
2022-08-26T02:02:03.106Z,19.32
2022-08-26T02:03:03.057Z,19.32
2022-08-26T02:04:03.038Z,19.32
2022-08-26T02:05:03.024Z,19.32
2022-08-26T02:06:03.011Z,19.32
2022-08-26T02:07:03.016Z,19.34
2022-08-26T02:08:02.989Z,19.32
2022-08-26T02:09:02.978Z,19.30
2022-08-26T02:10:02.958Z,19.26
2022-08-26T02:11:02.948Z,19.20
2022-08-26T02:12:02.939Z,19.19
2022-08-26T02:13:02.920Z,19.19
2022-08-26T02:14:02.900Z,19.19
2022-08-26T02:15:02.888Z,19.22
2022-08-26T02:16:02.977Z,19.22
2022-08-26T02:17:02.880Z,19.16
2022-08-26T02:18:02.848Z,19.12
2022-08-26T02:19:02.837Z,19.11
2022-08-26T02:20:02.819Z,19.09
2022-08-26T02:21:02.809Z,19.09
2022-08-26T02:22:02.809Z,19.07
2022-08-26T02:23:02.790Z,19.05
2022-08-26T02:24:02.770Z,19.05
2022-08-26T02:25:02.759Z,19.08
2022-08-26T02:26:02.747Z,19.09
2022-08-26T02:27:02.741Z,19.11
2022-08-26T02:28:02.718Z,19.11
2022-08-26T02:29:02.711Z,19.12
2022-08-26T02:30:02.704Z,19.12
2022-08-26T02:31:02.803Z,19.15
2022-08-26T02:32:02.677Z,19.16
2022-08-26T02:33:02.651Z,19.15
2022-08-26T02:34:02.630Z,19.12
2022-08-26T02:35:02.621Z,19.09
2022-08-26T02:36:02.603Z,19.07
2022-08-26T02:37:02.631Z,19.01
2022-08-26T02:38:02.578Z,19.00
2022-08-26T02:39:03.568Z,19.00
2022-08-26T02:40:02.633Z,19.01
2022-08-26T02:41:02.542Z,19.01
2022-08-26T02:42:02.522Z,19.01
2022-08-26T02:43:02.584Z,19.01
2022-08-26T02:44:02.492Z,19.05
2022-08-26T02:45:02.489Z,19.04
2022-08-26T02:46:02.661Z,19.05
2022-08-26T02:47:02.490Z,19.07
2022-08-26T02:48:02.462Z,19.05
2022-08-26T02:49:02.440Z,19.01
2022-08-26T02:50:02.413Z,19.00
2022-08-26T02:51:02.403Z,19.00
2022-08-26T02:52:02.395Z,19.00
2022-08-26T02:53:03.082Z,18.96
2022-08-26T02:54:02.363Z,18.96
2022-08-26T02:55:02.380Z,18.94
2022-08-26T02:56:02.335Z,18.92
2022-08-26T02:57:02.344Z,18.92
2022-08-26T02:58:02.328Z,18.89
2022-08-26T02:59:02.301Z,18.85
2022-08-26T03:00:02.282Z,18.78
2022-08-26T03:01:02.384Z,18.74
2022-08-26T03:02:02.294Z,18.71
2022-08-26T03:03:02.264Z,18.68
2022-08-26T03:04:02.228Z,18.68
2022-08-26T03:05:02.546Z,18.66
2022-08-26T03:06:02.203Z,18.67
2022-08-26T03:07:02.194Z,18.64
2022-08-26T03:08:02.194Z,18.66
2022-08-26T03:09:02.168Z,18.64
2022-08-26T03:10:06.892Z,18.66
2022-08-26T03:11:03.136Z,18.66
2022-08-26T03:12:02.126Z,18.66
2022-08-26T03:13:05.153Z,18.67
2022-08-26T03:14:03.526Z,18.67
2022-08-26T03:15:02.086Z,18.67
2022-08-26T03:16:03.120Z,18.66
2022-08-26T03:17:02.066Z,18.67
2022-08-26T03:18:02.056Z,18.64
2022-08-26T03:19:02.045Z,18.66
2022-08-26T03:20:02.023Z,18.66
2022-08-26T03:21:02.006Z,18.64
2022-08-26T03:22:01.986Z,18.61
2022-08-26T03:23:02.022Z,18.58
2022-08-26T03:24:01.959Z,18.53
2022-08-26T03:25:01.947Z,18.53
2022-08-26T03:26:01.926Z,18.55
2022-08-26T03:27:01.917Z,18.53
2022-08-26T03:28:01.918Z,18.51
2022-08-26T03:29:02.115Z,18.51
2022-08-26T03:30:01.878Z,18.46
2022-08-26T03:31:01.909Z,18.42
2022-08-26T03:32:01.848Z,18.39
2022-08-26T03:33:01.902Z,18.37
2022-08-26T03:34:01.827Z,18.33
2022-08-26T03:35:01.818Z,18.30
2022-08-26T03:36:01.799Z,18.26
2022-08-26T03:37:01.788Z,18.18
2022-08-26T03:38:01.914Z,18.16
2022-08-26T03:39:01.778Z,18.16
2022-08-26T03:40:01.786Z,18.15
2022-08-26T03:41:01.742Z,18.15
2022-08-26T03:42:01.723Z,18.16
2022-08-26T03:43:01.802Z,18.21
2022-08-26T03:44:02.038Z,18.23
2022-08-26T03:45:01.679Z,18.23
2022-08-26T03:46:01.672Z,18.21
2022-08-26T03:47:01.660Z,18.21
2022-08-26T03:48:01.659Z,18.21
2022-08-26T03:49:01.631Z,18.19
2022-08-26T03:50:01.626Z,18.21
2022-08-26T03:51:01.600Z,18.19
2022-08-26T03:52:01.595Z,18.19
2022-08-26T03:53:01.638Z,18.19
2022-08-26T03:54:01.559Z,18.21
2022-08-26T03:55:01.549Z,18.23
2022-08-26T03:56:01.531Z,18.23
2022-08-26T03:57:01.521Z,18.26
2022-08-26T03:58:01.520Z,18.27
2022-08-26T03:59:01.498Z,18.28
2022-08-26T04:00:01.483Z,18.28
2022-08-26T04:01:01.475Z,18.30
2022-08-26T04:02:01.487Z,18.33
2022-08-26T04:03:01.543Z,18.34
2022-08-26T04:04:01.437Z,18.34
2022-08-26T04:05:01.420Z,18.31
2022-08-26T04:06:01.404Z,18.28
2022-08-26T04:07:01.391Z,18.30
2022-08-26T04:08:01.392Z,18.30
2022-08-26T04:09:01.363Z,18.27
2022-08-26T04:10:01.343Z,18.28
2022-08-26T04:11:01.337Z,18.28
2022-08-26T04:12:01.329Z,18.28
2022-08-26T04:13:01.399Z,18.26
2022-08-26T04:14:01.292Z,18.26
2022-08-26T04:15:01.289Z,18.26
2022-08-26T04:16:01.308Z,18.26
2022-08-26T04:17:01.263Z,18.24
2022-08-26T04:18:01.288Z,18.19
2022-08-26T04:19:01.233Z,18.16
2022-08-26T04:20:01.213Z,18.18
2022-08-26T04:21:01.204Z,18.19
2022-08-26T04:22:01.191Z,18.18
2022-08-26T04:23:01.333Z,18.16
2022-08-26T04:24:03.513Z,18.18
2022-08-26T04:25:01.173Z,18.21
2022-08-26T04:26:01.136Z,18.21
2022-08-26T04:27:01.124Z,18.23
2022-08-26T04:28:01.132Z,18.21
2022-08-26T04:29:01.112Z,18.21
2022-08-26T04:30:01.088Z,18.21
2022-08-26T04:31:01.107Z,18.18
2022-08-26T04:32:01.131Z,18.13
2022-08-26T04:33:01.145Z,18.08
2022-08-26T04:34:01.034Z,18.06
2022-08-26T04:35:01.024Z,18.02
2022-08-26T04:36:01.006Z,17.97
2022-08-26T04:37:00.996Z,17.97
2022-08-26T04:38:00.995Z,17.94
2022-08-26T04:39:01.053Z,17.93
2022-08-26T04:40:01.001Z,17.90
2022-08-26T04:41:00.945Z,17.87
2022-08-26T04:42:01.736Z,17.86
2022-08-26T04:43:00.934Z,17.86
2022-08-26T04:44:00.905Z,17.86
2022-08-26T04:45:00.895Z,17.84
2022-08-26T04:46:00.906Z,17.84
2022-08-26T04:47:00.866Z,17.86
2022-08-26T04:48:00.875Z,17.87
2022-08-26T04:49:00.838Z,17.88
2022-08-26T04:50:01.864Z,17.86
2022-08-26T04:51:00.817Z,17.82
2022-08-26T04:52:00.797Z,17.84
2022-08-26T04:53:00.797Z,17.88
2022-08-26T04:54:00.787Z,17.90
2022-08-26T04:55:00.766Z,17.91
2022-08-26T04:56:00.745Z,17.94
2022-08-26T04:57:00.737Z,17.98
2022-08-26T04:58:00.720Z,18.00
2022-08-26T04:59:00.728Z,18.02
2022-08-26T05:00:00.687Z,18.00
2022-08-26T05:01:00.685Z,18.03
2022-08-26T05:02:00.727Z,18.02
2022-08-26T05:03:00.659Z,18.03
2022-08-26T05:04:00.703Z,18.05
2022-08-26T05:05:00.638Z,18.05
2022-08-26T05:06:00.609Z,18.05
2022-08-26T05:07:02.285Z,18.08
2022-08-26T05:08:00.717Z,18.08
2022-08-26T05:09:00.607Z,18.09
2022-08-26T05:10:00.563Z,18.09
2022-08-26T05:11:00.575Z,18.09
2022-08-26T05:12:00.622Z,18.11
2022-08-26T05:13:00.530Z,18.15
2022-08-26T05:14:02.369Z,18.13
2022-08-26T05:15:00.499Z,18.18
2022-08-26T05:16:01.366Z,18.19
2022-08-26T05:17:00.469Z,18.23
2022-08-26T05:18:00.460Z,18.21
2022-08-26T05:19:00.459Z,18.18
2022-08-26T05:20:00.451Z,18.18
2022-08-26T05:21:00.419Z,18.18
2022-08-26T05:22:00.399Z,18.12
2022-08-26T05:23:00.398Z,18.09
2022-08-26T05:24:00.398Z,18.05
2022-08-26T05:25:00.361Z,18.00
2022-08-26T05:26:00.636Z,17.98
2022-08-26T05:27:00.338Z,18.00
2022-08-26T05:28:00.334Z,18.03
2022-08-26T05:29:00.344Z,18.08
2022-08-26T05:30:00.301Z,18.09
2022-08-26T05:31:00.339Z,18.12
2022-08-26T05:32:00.304Z,18.16
2022-08-26T05:33:07.584Z,18.16
2022-08-26T05:34:00.315Z,18.16
2022-08-26T05:35:00.265Z,18.18
2022-08-26T05:36:00.257Z,18.18
2022-08-26T05:37:00.228Z,18.19
2022-08-26T05:38:00.238Z,18.19
2022-08-26T05:39:00.234Z,18.19
2022-08-26T05:40:00.301Z,18.21
2022-08-26T05:41:00.178Z,18.24
2022-08-26T05:42:00.189Z,18.24
2022-08-26T05:43:00.159Z,18.26
2022-08-26T05:44:00.169Z,18.30
2022-08-26T05:45:00.138Z,18.34
2022-08-26T05:46:00.210Z,18.34
2022-08-26T05:47:00.111Z,18.37
2022-08-26T05:48:00.109Z,18.39
2022-08-26T05:49:00.106Z,18.43
2022-08-26T05:50:00.122Z,18.42
2022-08-26T05:51:00.058Z,18.43
2022-08-26T05:52:00.050Z,18.46
2022-08-26T05:53:00.038Z,18.48
2022-08-26T05:54:00.040Z,18.49
2022-08-26T05:55:00.007Z,18.57
2022-08-26T05:56:00.134Z,18.58
2022-08-26T05:56:59.976Z,18.64
2022-08-26T05:57:59.969Z,18.67
2022-08-26T05:58:59.960Z,18.68
2022-08-26T05:59:59.958Z,18.70
2022-08-26T06:00:59.962Z,18.73
2022-08-26T06:01:59.974Z,18.73
2022-08-26T06:03:00.023Z,18.74
2022-08-26T06:04:01.858Z,18.78
2022-08-26T06:04:59.885Z,18.76
2022-08-26T06:05:59.874Z,18.79
2022-08-26T06:06:59.849Z,18.82
2022-08-26T06:07:59.844Z,18.83
2022-08-26T06:08:59.841Z,18.83
2022-08-26T06:10:28.299Z,18.83
2022-08-26T06:11:00.780Z,18.86
2022-08-26T06:11:59.786Z,18.88
2022-08-26T06:13:02.265Z,18.89
2022-08-26T06:14:03.783Z,18.94
2022-08-26T06:14:59.744Z,18.98
2022-08-26T06:15:59.796Z,19.00
2022-08-26T06:16:59.731Z,18.98
2022-08-26T06:17:59.703Z,19.01
2022-08-26T06:18:59.692Z,19.04
2022-08-26T06:19:59.693Z,19.04
2022-08-26T06:20:59.908Z,19.05
2022-08-26T06:21:59.655Z,19.04
2022-08-26T06:22:59.622Z,19.05
2022-08-26T06:23:59.651Z,19.04
2022-08-26T06:24:59.615Z,19.01
2022-08-26T06:25:59.602Z,19.00
2022-08-26T06:26:59.580Z,19.01
2022-08-26T06:27:59.563Z,19.05
2022-08-26T06:28:59.548Z,19.05
2022-08-26T06:29:59.565Z,19.08
2022-08-26T06:30:59.564Z,19.09
2022-08-26T06:31:59.513Z,19.11
2022-08-26T06:32:59.486Z,19.15
2022-08-26T06:33:59.490Z,19.17
2022-08-26T06:34:59.488Z,19.20
2022-08-26T06:35:59.466Z,19.20
2022-08-26T06:36:59.444Z,19.22
2022-08-26T06:37:59.438Z,19.24
2022-08-26T06:38:59.414Z,19.26
2022-08-26T06:39:59.460Z,19.29
2022-08-26T06:40:59.877Z,19.30
2022-08-26T06:41:59.394Z,19.37
2022-08-26T06:42:59.363Z,19.41
2022-08-26T06:43:59.354Z,19.47
2022-08-26T06:44:59.354Z,19.53
2022-08-26T06:45:59.364Z,19.63
2022-08-26T06:46:59.309Z,19.71
2022-08-26T06:47:59.293Z,19.82
2022-08-26T06:48:59.276Z,19.90
2022-08-26T06:49:59.285Z,20.03
2022-08-26T06:50:59.253Z,20.11
2022-08-26T06:51:59.248Z,20.17
2022-08-26T06:52:59.224Z,20.22
2022-08-26T06:53:59.221Z,20.30
2022-08-26T06:54:59.226Z,20.36
2022-08-26T06:55:59.196Z,20.42
2022-08-26T06:56:59.176Z,20.52
2022-08-26T06:57:59.166Z,20.58
2022-08-26T06:58:59.136Z,20.66
2022-08-26T06:59:59.163Z,20.73
2022-08-26T07:01:03.101Z,20.77
2022-08-26T07:02:00.208Z,20.83
2022-08-26T07:02:59.111Z,20.92
2022-08-26T07:03:59.086Z,21.03
2022-08-26T07:04:59.067Z,21.01
2022-08-26T07:05:59.077Z,21.04
2022-08-26T07:06:59.037Z,21.10
2022-08-26T07:07:59.027Z,21.13
2022-08-26T07:08:59.089Z,21.13
2022-08-26T07:09:59.028Z,21.17
2022-08-26T07:10:58.995Z,21.19
2022-08-26T07:11:58.982Z,21.14
2022-08-26T07:12:58.956Z,21.14
2022-08-26T07:13:58.982Z,21.15
2022-08-26T07:14:58.935Z,21.19
2022-08-26T07:15:58.953Z,21.19
2022-08-26T07:16:58.899Z,21.20
2022-08-26T07:17:58.898Z,21.26
2022-08-26T07:18:58.872Z,21.30
2022-08-26T07:19:58.911Z,21.38
2022-08-26T07:20:58.849Z,21.43
2022-08-26T07:21:58.832Z,21.43
2022-08-26T07:22:58.819Z,21.43
2022-08-26T07:24:01.305Z,21.48
2022-08-26T07:24:58.814Z,21.51
2022-08-26T07:25:58.790Z,21.53
2022-08-26T07:26:58.772Z,21.58
2022-08-26T07:27:58.769Z,21.62
2022-08-26T07:28:59.412Z,21.65
2022-08-26T07:29:58.749Z,21.68
2022-08-26T07:31:00.133Z,21.62
2022-08-26T07:32:00.358Z,21.59
2022-08-26T07:33:00.999Z,21.60
2022-08-26T07:34:00.173Z,21.60
2022-08-26T07:35:00.984Z,21.56
2022-08-26T07:35:59.205Z,21.59
2022-08-26T07:36:58.805Z,21.60
2022-08-26T07:37:58.631Z,21.62
2022-08-26T07:38:58.614Z,21.66
2022-08-26T07:39:58.668Z,21.74
2022-08-26T07:40:58.585Z,21.77
2022-08-26T07:41:58.579Z,21.81
2022-08-26T07:42:58.552Z,21.83
2022-08-26T07:43:58.542Z,21.85
2022-08-26T07:44:58.542Z,21.88
2022-08-26T07:45:58.542Z,21.94
2022-08-26T07:46:58.511Z,21.99
2022-08-26T07:47:58.493Z,22.00
2022-08-26T07:48:58.481Z,22.03
2022-08-26T07:49:58.487Z,22.03
2022-08-26T07:50:58.453Z,22.06
2022-08-26T07:51:58.444Z,22.06
2022-08-26T07:52:58.424Z,22.04
2022-08-26T07:53:58.414Z,22.04
2022-08-26T07:54:58.487Z,22.04
2022-08-26T07:55:58.386Z,22.07
2022-08-26T07:56:58.376Z,22.08
2022-08-26T07:57:58.356Z,22.10
2022-08-26T07:58:58.354Z,22.12
2022-08-26T07:59:58.354Z,22.16
2022-08-26T08:00:58.316Z,22.18
2022-08-26T08:01:58.341Z,22.22
2022-08-26T08:02:58.283Z,22.22
2022-08-26T08:03:58.277Z,22.23
2022-08-26T08:04:58.438Z,22.26
2022-08-26T08:05:58.265Z,22.31
2022-08-26T08:06:58.236Z,22.33
2022-08-26T08:08:17.323Z,22.38
2022-08-26T08:08:59.207Z,22.40
2022-08-26T08:09:58.216Z,22.46
2022-08-26T08:10:58.178Z,22.47
2022-08-26T08:11:58.176Z,22.51
2022-08-26T08:12:58.147Z,22.56
2022-08-26T08:13:58.145Z,22.62
2022-08-26T08:14:58.140Z,22.62
2022-08-26T08:15:58.137Z,22.67
2022-08-26T08:16:58.201Z,22.65
2022-08-26T08:18:00.666Z,22.65
2022-08-26T08:18:58.068Z,22.62
2022-08-26T08:19:58.087Z,22.63
2022-08-26T08:21:10.854Z,22.65
2022-08-26T08:21:59.039Z,22.65
2022-08-26T08:22:58.025Z,22.68
2022-08-26T08:23:58.017Z,22.73
2022-08-26T08:24:58.015Z,22.74
2022-08-26T08:25:57.987Z,22.76
2022-08-26T08:26:57.969Z,22.76
2022-08-26T08:27:57.957Z,22.80
2022-08-26T08:28:57.940Z,22.80
2022-08-26T08:29:57.959Z,22.81
2022-08-26T08:30:58.005Z,22.88
2022-08-26T08:31:59.876Z,22.93
2022-08-26T08:32:57.889Z,22.99
2022-08-26T08:33:57.891Z,23.02
2022-08-26T08:34:57.895Z,23.01
2022-08-26T08:35:57.858Z,23.07
2022-08-26T08:36:57.859Z,23.11
2022-08-26T08:37:57.841Z,23.16
2022-08-26T08:38:57.812Z,23.18
2022-08-26T08:39:57.852Z,23.21
2022-08-26T08:40:57.811Z,23.23
2022-08-26T08:41:57.865Z,23.26
2022-08-26T08:42:57.767Z,23.28
2022-08-26T08:43:57.750Z,23.26
2022-08-26T08:44:57.752Z,23.26
2022-08-26T08:45:57.786Z,23.28
2022-08-26T08:46:57.715Z,23.32
2022-08-26T08:47:57.694Z,23.32
2022-08-26T08:48:57.691Z,23.26
2022-08-26T08:49:57.691Z,23.26
2022-08-26T08:50:57.652Z,23.25
2022-08-26T08:51:57.652Z,23.20
2022-08-26T08:52:57.635Z,23.14
2022-08-26T08:53:57.623Z,23.13
2022-08-26T08:54:57.623Z,23.10
2022-08-26T08:55:57.613Z,23.11
2022-08-26T08:56:57.572Z,23.13
2022-08-26T08:58:02.292Z,23.11
2022-08-26T08:58:57.546Z,23.07
2022-08-26T08:59:57.563Z,23.06
2022-08-26T09:00:57.543Z,23.07
2022-08-26T09:01:57.567Z,23.13
2022-08-26T09:02:57.493Z,23.18
2022-08-26T09:03:57.486Z,23.21
2022-08-26T09:04:57.583Z,23.25
2022-08-26T09:05:57.474Z,23.34
2022-08-26T09:07:57.443Z,23.47
2022-08-26T09:08:57.418Z,23.52
2022-08-26T09:09:57.404Z,23.58
2022-08-26T09:10:57.406Z,23.63
2022-08-26T09:11:57.388Z,23.63
2022-08-26T09:12:57.365Z,23.67
2022-08-26T09:13:57.376Z,23.70
2022-08-26T09:14:57.335Z,23.76
2022-08-26T09:15:57.346Z,23.84
2022-08-26T09:16:57.383Z,23.85
2022-08-26T09:17:57.310Z,23.89
2022-08-26T09:18:57.294Z,23.95
2022-08-26T09:19:57.289Z,24.06
2022-08-26T09:20:57.285Z,24.13
2022-08-26T09:21:57.247Z,24.19
2022-08-26T09:22:57.238Z,24.26
2022-08-26T09:23:57.227Z,24.32
2022-08-26T09:24:57.204Z,24.37
2022-08-26T09:25:57.310Z,24.43
2022-08-26T09:26:57.189Z,24.44
2022-08-26T09:27:57.179Z,24.46
2022-08-26T09:28:57.162Z,24.47
2022-08-26T09:29:57.146Z,24.48
2022-08-26T09:30:57.238Z,24.44
2022-08-26T09:31:57.120Z,24.41
2022-08-26T09:32:57.109Z,24.41
2022-08-26T09:33:57.104Z,24.40
2022-08-26T09:34:57.079Z,24.41
2022-08-26T09:35:57.089Z,24.46
2022-08-26T09:36:57.095Z,24.51
2022-08-26T09:37:57.036Z,24.58
2022-08-26T09:38:57.025Z,24.61
2022-08-26T09:39:57.061Z,24.58
2022-08-26T09:40:59.184Z,24.56
2022-08-26T09:41:56.987Z,24.58
2022-08-26T09:42:56.990Z,24.56
2022-08-26T09:43:56.950Z,24.56
2022-08-26T09:44:56.942Z,24.55
2022-08-26T09:45:59.451Z,24.53
2022-08-26T09:46:56.930Z,24.55
2022-08-26T09:47:56.909Z,24.55
2022-08-26T09:48:56.892Z,24.50
2022-08-26T09:49:56.870Z,24.50
2022-08-26T09:50:56.884Z,24.51
2022-08-26T09:51:56.881Z,24.48
2022-08-26T09:52:56.854Z,24.47
2022-08-26T09:53:56.821Z,24.46
2022-08-26T09:54:56.821Z,24.47
2022-08-26T09:55:56.813Z,24.47
2022-08-26T09:56:56.792Z,24.50
2022-08-26T09:57:57.531Z,24.51
2022-08-26T09:58:56.767Z,24.53
2022-08-26T09:59:56.744Z,24.53
2022-08-26T10:00:56.862Z,24.55
2022-08-26T10:01:56.842Z,24.58
2022-08-26T10:02:58.127Z,24.58
2022-08-26T10:03:56.759Z,24.61
2022-08-26T10:04:56.693Z,24.59
2022-08-26T10:05:56.693Z,24.68
2022-08-26T10:06:56.659Z,24.75
2022-08-26T10:07:56.656Z,24.82
2022-08-26T10:08:56.635Z,24.93
2022-08-26T10:09:56.617Z,25.01
2022-08-26T10:10:56.606Z,25.11
2022-08-26T10:11:56.655Z,25.19
2022-08-26T10:12:56.591Z,25.24
2022-08-26T10:13:56.556Z,25.33
2022-08-26T10:14:56.546Z,25.40
2022-08-26T10:15:56.514Z,25.48
2022-08-26T10:16:56.683Z,25.54
2022-08-26T10:17:56.523Z,25.62
2022-08-26T10:19:00.058Z,25.73
2022-08-26T10:19:57.711Z,25.78
2022-08-26T10:20:56.476Z,25.88
2022-08-26T10:21:56.468Z,25.96
2022-08-26T10:22:56.427Z,26.04
2022-08-26T10:23:56.438Z,26.07
2022-08-26T10:24:56.450Z,26.13
2022-08-26T10:25:58.987Z,26.16
2022-08-26T10:26:56.418Z,26.22
2022-08-26T10:27:56.385Z,26.22
2022-08-26T10:28:56.377Z,26.23
2022-08-26T10:29:56.349Z,26.29
2022-08-26T10:30:56.364Z,26.31
2022-08-26T10:32:02.538Z,26.34
2022-08-26T10:32:57.317Z,26.37
2022-08-26T10:33:58.888Z,26.44
2022-08-26T10:34:56.301Z,26.51
2022-08-26T10:35:56.280Z,26.53
2022-08-26T10:37:15.757Z,26.59
2022-08-26T10:37:57.252Z,26.64
2022-08-26T10:38:56.239Z,26.68
2022-08-26T10:39:57.312Z,26.74
2022-08-26T10:40:56.213Z,26.79
2022-08-26T10:41:56.210Z,26.81
2022-08-26T10:42:56.190Z,26.81
2022-08-26T10:43:56.160Z,26.81
2022-08-26T10:44:58.598Z,26.83
2022-08-26T10:45:56.203Z,26.86
2022-08-26T10:46:56.171Z,26.91
2022-08-26T10:47:56.117Z,26.91
2022-08-26T10:48:56.103Z,26.92
2022-08-26T10:50:00.480Z,26.97
2022-08-26T10:50:57.080Z,26.98
2022-08-26T10:51:56.082Z,26.97
2022-08-26T10:52:56.061Z,26.93
2022-08-26T10:53:56.041Z,27.00
2022-08-26T10:54:56.013Z,27.04
2022-08-26T10:55:56.015Z,27.04
2022-08-26T10:56:56.023Z,27.04
2022-08-26T10:57:55.983Z,27.07
2022-08-26T10:58:55.973Z,27.05
2022-08-26T10:59:55.953Z,27.07
2022-08-26T11:00:56.049Z,27.10
2022-08-26T11:01:55.943Z,27.15
2022-08-26T11:02:55.936Z,27.16
2022-08-26T11:03:55.933Z,27.22
2022-08-26T11:04:55.895Z,27.25
2022-08-26T11:05:55.877Z,27.25
2022-08-26T11:06:55.884Z,27.33
2022-08-26T11:07:55.856Z,27.40
2022-08-26T11:08:55.853Z,27.40
2022-08-26T11:09:55.822Z,27.43
2022-08-26T11:10:55.835Z,27.47
2022-08-26T11:11:55.835Z,27.48
2022-08-26T11:12:55.825Z,27.48
2022-08-26T11:13:55.786Z,27.52
2022-08-26T11:14:59.078Z,27.58
2022-08-26T11:15:55.746Z,27.60
2022-08-26T11:16:55.825Z,27.64
2022-08-26T11:17:55.742Z,27.71
2022-08-26T11:18:55.744Z,27.73
2022-08-26T11:20:08.974Z,27.75
2022-08-26T11:20:56.689Z,27.76
2022-08-26T11:21:55.685Z,27.76
2022-08-26T11:22:55.733Z,27.75
2022-08-26T11:23:55.723Z,27.75
2022-08-26T11:24:55.637Z,27.75
2022-08-26T11:25:55.639Z,27.78
2022-08-26T11:26:56.709Z,27.82
2022-08-26T11:27:55.595Z,27.88
2022-08-26T11:28:55.579Z,27.91
2022-08-26T11:29:55.559Z,27.88
2022-08-26T11:30:58.104Z,27.86
2022-08-26T11:31:55.615Z,27.93
2022-08-26T11:32:55.526Z,28.00
2022-08-26T11:33:55.510Z,28.03
2022-08-26T11:34:56.221Z,28.01
2022-08-26T11:35:55.487Z,27.97
2022-08-26T11:36:55.506Z,28.00
2022-08-26T11:37:55.554Z,28.01
2022-08-26T11:38:55.452Z,28.08
2022-08-26T11:39:57.012Z,28.15
2022-08-26T11:40:55.430Z,28.18
2022-08-26T11:41:55.400Z,28.15
2022-08-26T11:42:55.428Z,28.16
2022-08-26T11:43:55.382Z,28.19
2022-08-26T11:44:57.006Z,28.22
2022-08-26T11:45:55.394Z,28.27
2022-08-26T11:46:55.344Z,28.25
2022-08-26T11:47:55.343Z,28.20
2022-08-26T11:48:55.311Z,28.28
2022-08-26T11:49:55.305Z,28.31
2022-08-26T11:50:55.299Z,28.31
2022-08-26T11:51:55.283Z,28.35
2022-08-26T11:53:04.586Z,28.33
2022-08-26T11:53:55.227Z,28.33
2022-08-26T11:54:55.223Z,28.40
2022-08-26T11:55:55.210Z,28.40
2022-08-26T11:56:55.185Z,28.43
2022-08-26T11:57:55.195Z,28.46
2022-08-26T11:58:55.158Z,28.46
2022-08-26T11:59:55.148Z,28.50
2022-08-26T12:00:55.133Z,28.50
2022-08-26T12:01:55.116Z,28.57
2022-08-26T12:02:55.116Z,28.57
2022-08-26T12:03:55.127Z,28.52
2022-08-26T12:04:55.078Z,28.52
2022-08-26T12:05:55.065Z,28.52
2022-08-26T12:06:55.057Z,28.43
2022-08-26T12:07:55.057Z,28.33
2022-08-26T12:08:55.037Z,28.28
2022-08-26T12:09:55.007Z,28.31
2022-08-26T12:10:55.028Z,28.35
2022-08-26T12:11:57.981Z,28.40
2022-08-26T12:12:54.996Z,28.47
2022-08-26T12:13:54.968Z,28.53
2022-08-26T12:14:54.958Z,28.57
2022-08-26T12:15:56.033Z,28.62
2022-08-26T12:16:54.967Z,28.41
2022-08-26T12:17:54.927Z,28.30
2022-08-26T12:18:54.910Z,28.31
2022-08-26T12:19:54.879Z,28.34
2022-08-26T12:20:54.879Z,28.41
2022-08-26T12:21:54.860Z,28.47
2022-08-26T12:22:54.869Z,28.52
2022-08-26T12:23:54.848Z,28.56
2022-08-26T12:24:54.828Z,28.57
2022-08-26T12:25:54.819Z,28.57
2022-08-26T12:26:54.800Z,28.59
2022-08-26T12:27:54.781Z,28.64
2022-08-26T12:28:54.791Z,28.55
2022-08-26T12:29:54.760Z,28.55
2022-08-26T12:30:54.751Z,28.55
2022-08-26T12:31:54.765Z,28.47
2022-08-26T12:32:58.789Z,28.49
2022-08-26T12:33:54.722Z,28.53
2022-08-26T12:34:54.738Z,28.56
2022-08-26T12:35:56.385Z,28.46
2022-08-26T12:36:54.706Z,28.50
2022-08-26T12:37:54.663Z,28.52
2022-08-26T12:38:58.127Z,28.56
2022-08-26T12:39:54.675Z,28.62
2022-08-26T12:40:54.653Z,28.71
2022-08-26T12:41:54.613Z,28.74
2022-08-26T12:42:54.594Z,28.72
2022-08-26T12:43:54.608Z,28.71
2022-08-26T12:44:54.711Z,28.74
2022-08-26T12:45:54.598Z,28.82
2022-08-26T12:46:54.674Z,28.84
2022-08-26T12:47:54.541Z,28.90
2022-08-26T12:48:54.535Z,28.83
2022-08-26T12:49:54.505Z,28.93
2022-08-26T12:50:54.505Z,28.90
2022-08-26T12:51:54.482Z,28.90
2022-08-26T12:52:54.475Z,28.71